Aviation Digital Data Service (ADDS)

Output produced by METARs form (2058 UTC 26 April 2015)
found at http://aviationweather.gov/adds/metars/
 
KTOL 261926Z 2619/2718 02012G20KT P6SM BKN050 
     FM270000 02006KT P6SM BKN050 
     FM270700 32005KT P6SM OVC050 
     FM271200 33012KT P6SM OVC025